Terminal Aerodrome Forecast
Issued by NWS

Home | Current Version | Previous Version | Graphics & Text | Print | Product List | Glossary On
Versions: 1 2 3 4 5 6 7 8 9 10 11 12 13 14 15
000
FTUS43 KMPX 281700
TAFRWF
TAF
KRWF 281720Z 2818/2918 29020G30KT P6SM BKN018 OVC030
     FM282100 30017G27KT P6SM SCT020 BKN035
     FM290100 29010KT P6SM FEW025 BKN050
     FM290600 30010KT P6SM SCT025
     FM291500 30006KT P6SM SCT200=

USA.gov is the U.S. government's official web portal to all federal, state and local government web resources and services.